sensor_id;sensor_type;location;lat;lon;timestamp;P1;durP1;ratioP1;P2;durP2;ratioP2
21152;SDS011;10734;44.792;20.482;2023-02-15T00:00:21;71.72;;;38.10;;
21152;SDS011;10734;44.792;20.482;2023-02-15T00:02:47;78.22;;;39.53;;
21152;SDS011;10734;44.792;20.482;2023-02-15T00:05:14;74.05;;;36.28;;
21152;SDS011;10734;44.792;20.482;2023-02-15T00:07:41;67.63;;;36.58;;
21152;SDS011;10734;44.792;20.482;2023-02-15T00:10:08;73.28;;;37.20;;
21152;SDS011;10734;44.792;20.482;2023-02-15T00:12:34;67.93;;;36.45;;
21152;SDS011;10734;44.792;20.482;2023-02-15T00:15:01;65.43;;;36.45;;
21152;SDS011;10734;44.792;20.482;2023-02-15T00:17:28;73.15;;;37.35;;
21152;SDS011;10734;44.792;20.482;2023-02-15T00:19:54;69.72;;;36.08;;
21152;SDS011;10734;44.792;20.482;2023-02-15T00:22:21;70.95;;;37.05;;
21152;SDS011;10734;44.792;20.482;2023-02-15T00:24:47;72.03;;;38.42;;
21152;SDS011;10734;44.792;20.482;2023-02-15T00:27:14;71.65;;;35.78;;
21152;SDS011;10734;44.792;20.482;2023-02-15T00:29:40;68.95;;;34.78;;
21152;SDS011;10734;44.792;20.482;2023-02-15T00:32:07;70.60;;;37.35;;
21152;SDS011;10734;44.792;20.482;2023-02-15T00:34:33;68.68;;;37.22;;
21152;SDS011;10734;44.792;20.482;2023-02-15T00:37:00;68.18;;;35.15;;
21152;SDS011;10734;44.792;20.482;2023-02-15T00:39:26;70.68;;;36.75;;
21152;SDS011;10734;44.792;20.482;2023-02-15T00:41:55;63.50;;;34.03;;
21152;SDS011;10734;44.792;20.482;2023-02-15T00:44:21;76.00;;;38.58;;
21152;SDS011;10734;44.792;20.482;2023-02-15T00:46:48;64.10;;;34.53;;
21152;SDS011;10734;44.792;20.482;2023-02-15T00:49:14;77.75;;;38.15;;
21152;SDS011;10734;44.792;20.482;2023-02-15T00:51:40;66.97;;;35.28;;
21152;SDS011;10734;44.792;20.482;2023-02-15T00:54:07;71.30;;;38.20;;
21152;SDS011;10734;44.792;20.482;2023-02-15T00:56:33;66.55;;;34.38;;
21152;SDS011;10734;44.792;20.482;2023-02-15T00:59:00;76.07;;;37.40;;
21152;SDS011;10734;44.792;20.482;2023-02-15T01:01:26;76.30;;;39.30;;
21152;SDS011;10734;44.792;20.482;2023-02-15T01:03:53;73.40;;;39.33;;
21152;SDS011;10734;44.792;20.482;2023-02-15T01:06:20;75.20;;;38.38;;
21152;SDS011;10734;44.792;20.482;2023-02-15T01:08:47;84.55;;;40.78;;
21152;SDS011;10734;44.792;20.482;2023-02-15T01:11:14;80.95;;;39.63;;
21152;SDS011;10734;44.792;20.482;2023-02-15T01:13:41;80.97;;;39.78;;
21152;SDS011;10734;44.792;20.482;2023-02-15T01:16:08;71.43;;;38.00;;
21152;SDS011;10734;44.792;20.482;2023-02-15T01:18:34;77.32;;;39.38;;
21152;SDS011;10734;44.792;20.482;2023-02-15T01:21:08;70.50;;;37.30;;
21152;SDS011;10734;44.792;20.482;2023-02-15T01:23:35;71.13;;;35.88;;
21152;SDS011;10734;44.792;20.482;2023-02-15T01:26:02;73.10;;;36.53;;
21152;SDS011;10734;44.792;20.482;2023-02-15T01:28:29;72.93;;;35.83;;
21152;SDS011;10734;44.792;20.482;2023-02-15T01:30:55;70.88;;;36.45;;
21152;SDS011;10734;44.792;20.482;2023-02-15T01:33:22;70.57;;;36.72;;
21152;SDS011;10734;44.792;20.482;2023-02-15T01:35:48;66.63;;;34.17;;
21152;SDS011;10734;44.792;20.482;2023-02-15T01:38:21;70.63;;;35.33;;
21152;SDS011;10734;44.792;20.482;2023-02-15T01:40:50;67.80;;;33.97;;
21152;SDS011;10734;44.792;20.482;2023-02-15T01:43:17;66.90;;;35.90;;
21152;SDS011;10734;44.792;20.482;2023-02-15T01:45:45;76.50;;;37.13;;
21152;SDS011;10734;44.792;20.482;2023-02-15T01:48:18;75.38;;;36.67;;
21152;SDS011;10734;44.792;20.482;2023-02-15T01:50:48;74.75;;;36.55;;
21152;SDS011;10734;44.792;20.482;2023-02-15T01:53:18;75.22;;;36.35;;
21152;SDS011;10734;44.792;20.482;2023-02-15T01:55:47;62.90;;;35.67;;
21152;SDS011;10734;44.792;20.482;2023-02-15T01:58:16;69.35;;;34.45;;
21152;SDS011;10734;44.792;20.482;2023-02-15T02:00:43;67.07;;;32.75;;
21152;SDS011;10734;44.792;20.482;2023-02-15T02:03:10;65.32;;;34.72;;
21152;SDS011;10734;44.792;20.482;2023-02-15T02:05:37;62.10;;;34.78;;
21152;SDS011;10734;44.792;20.482;2023-02-15T02:08:04;67.13;;;34.17;;
21152;SDS011;10734;44.792;20.482;2023-02-15T02:10:32;64.60;;;33.35;;
21152;SDS011;10734;44.792;20.482;2023-02-15T02:12:59;53.28;;;30.05;;
21152;SDS011;10734;44.792;20.482;2023-02-15T02:15:39;60.22;;;32.58;;
21152;SDS011;10734;44.792;20.482;2023-02-15T02:18:13;58.67;;;31.95;;
21152;SDS011;10734;44.792;20.482;2023-02-15T02:26:03;65.65;;;31.73;;
21152;SDS011;10734;44.792;20.482;2023-02-15T02:31:31;55.92;;;30.95;;
21152;SDS011;10734;44.792;20.482;2023-02-15T02:44:19;57.30;;;30.15;;
21152;SDS011;10734;44.792;20.482;2023-02-15T02:49:31;49.40;;;27.80;;
21152;SDS011;10734;44.792;20.482;2023-02-15T02:54:44;52.47;;;28.15;;
21152;SDS011;10734;44.792;20.482;2023-02-15T02:57:10;55.63;;;28.13;;
21152;SDS011;10734;44.792;20.482;2023-02-15T02:59:38;56.22;;;29.00;;
21152;SDS011;10734;44.792;20.482;2023-02-15T03:02:16;51.50;;;29.45;;
21152;SDS011;10734;44.792;20.482;2023-02-15T03:04:45;50.40;;;26.75;;
21152;SDS011;10734;44.792;20.482;2023-02-15T03:07:14;51.58;;;27.77;;
21152;SDS011;10734;44.792;20.482;2023-02-15T03:09:49;51.45;;;29.35;;
21152;SDS011;10734;44.792;20.482;2023-02-15T03:12:21;52.95;;;28.75;;
21152;SDS011;10734;44.792;20.482;2023-02-15T03:14:49;47.00;;;27.40;;
21152;SDS011;10734;44.792;20.482;2023-02-15T03:17:18;55.15;;;27.88;;
21152;SDS011;10734;44.792;20.482;2023-02-15T03:19:46;51.47;;;27.80;;
21152;SDS011;10734;44.792;20.482;2023-02-15T03:22:20;55.33;;;30.08;;
21152;SDS011;10734;44.792;20.482;2023-02-15T03:24:52;48.88;;;27.13;;
21152;SDS011;10734;44.792;20.482;2023-02-15T03:27:21;53.10;;;28.40;;
21152;SDS011;10734;44.792;20.482;2023-02-15T03:29:49;60.22;;;30.05;;
21152;SDS011;10734;44.792;20.482;2023-02-15T03:32:18;55.63;;;30.50;;
21152;SDS011;10734;44.792;20.482;2023-02-15T03:34:45;54.25;;;30.27;;
21152;SDS011;10734;44.792;20.482;2023-02-15T03:42:43;53.25;;;28.67;;
21152;SDS011;10734;44.792;20.482;2023-02-15T03:45:13;59.10;;;30.60;;
21152;SDS011;10734;44.792;20.482;2023-02-15T03:47:44;57.63;;;31.67;;
21152;SDS011;10734;44.792;20.482;2023-02-15T03:53:01;62.45;;;31.67;;
21152;SDS011;10734;44.792;20.482;2023-02-15T03:55:28;57.72;;;30.60;;
21152;SDS011;10734;44.792;20.482;2023-02-15T03:57:55;59.85;;;32.00;;
21152;SDS011;10734;44.792;20.482;2023-02-15T04:00:41;57.45;;;31.35;;
21152;SDS011;10734;44.792;20.482;2023-02-15T04:05:57;66.65;;;31.08;;
21152;SDS011;10734;44.792;20.482;2023-02-15T04:08:25;59.28;;;31.65;;
21152;SDS011;10734;44.792;20.482;2023-02-15T04:11:11;60.08;;;31.90;;
21152;SDS011;10734;44.792;20.482;2023-02-15T04:13:38;59.50;;;31.63;;
21152;SDS011;10734;44.792;20.482;2023-02-15T04:16:05;58.72;;;30.38;;
21152;SDS011;10734;44.792;20.482;2023-02-15T04:18:37;61.80;;;31.70;;
21152;SDS011;10734;44.792;20.482;2023-02-15T04:21:22;62.55;;;32.53;;
21152;SDS011;10734;44.792;20.482;2023-02-15T04:24:08;63.63;;;32.75;;
21152;SDS011;10734;44.792;20.482;2023-02-15T04:26:53;58.95;;;31.05;;
21152;SDS011;10734;44.792;20.482;2023-02-15T04:29:20;60.38;;;32.83;;
21152;SDS011;10734;44.792;20.482;2023-02-15T04:31:47;62.55;;;33.45;;
21152;SDS011;10734;44.792;20.482;2023-02-15T04:34:13;64.07;;;32.55;;
21152;SDS011;10734;44.792;20.482;2023-02-15T04:36:40;67.70;;;34.65;;
21152;SDS011;10734;44.792;20.482;2023-02-15T04:39:07;66.78;;;35.08;;
21152;SDS011;10734;44.792;20.482;2023-02-15T04:41:33;65.90;;;34.05;;
21152;SDS011;10734;44.792;20.482;2023-02-15T04:44:00;67.57;;;34.17;;
21152;SDS011;10734;44.792;20.482;2023-02-15T04:46:27;66.45;;;35.28;;
21152;SDS011;10734;44.792;20.482;2023-02-15T04:48:54;77.65;;;38.60;;
21152;SDS011;10734;44.792;20.482;2023-02-15T04:51:21;69.55;;;35.70;;
21152;SDS011;10734;44.792;20.482;2023-02-15T04:53:47;70.50;;;37.55;;
21152;SDS011;10734;44.792;20.482;2023-02-15T04:56:14;77.78;;;38.22;;
21152;SDS011;10734;44.792;20.482;2023-02-15T04:58:40;70.38;;;36.25;;
21152;SDS011;10734;44.792;20.482;2023-02-15T05:01:09;79.72;;;40.13;;
21152;SDS011;10734;44.792;20.482;2023-02-15T05:03:36;71.28;;;35.35;;
21152;SDS011;10734;44.792;20.482;2023-02-15T05:06:03;72.30;;;37.38;;
21152;SDS011;10734;44.792;20.482;2023-02-15T05:08:30;67.22;;;34.72;;
21152;SDS011;10734;44.792;20.482;2023-02-15T05:10:57;69.47;;;37.08;;
21152;SDS011;10734;44.792;20.482;2023-02-15T05:13:23;85.78;;;41.72;;
21152;SDS011;10734;44.792;20.482;2023-02-15T05:15:51;75.82;;;38.47;;
21152;SDS011;10734;44.792;20.482;2023-02-15T05:18:18;75.32;;;39.17;;
21152;SDS011;10734;44.792;20.482;2023-02-15T05:20:45;84.38;;;40.28;;
21152;SDS011;10734;44.792;20.482;2023-02-15T05:23:11;70.05;;;36.63;;
21152;SDS011;10734;44.792;20.482;2023-02-15T05:25:38;75.30;;;38.65;;
21152;SDS011;10734;44.792;20.482;2023-02-15T05:28:24;74.40;;;37.53;;
21152;SDS011;10734;44.792;20.482;2023-02-15T05:30:52;72.63;;;36.95;;
21152;SDS011;10734;44.792;20.482;2023-02-15T05:33:24;70.68;;;36.38;;
21152;SDS011;10734;44.792;20.482;2023-02-15T05:35:51;68.28;;;35.42;;
21152;SDS011;10734;44.792;20.482;2023-02-15T05:38:17;66.90;;;36.65;;
21152;SDS011;10734;44.792;20.482;2023-02-15T05:40:44;68.25;;;37.30;;
21152;SDS011;10734;44.792;20.482;2023-02-15T05:43:10;70.22;;;34.80;;
21152;SDS011;10734;44.792;20.482;2023-02-15T05:45:37;71.32;;;36.75;;
21152;SDS011;10734;44.792;20.482;2023-02-15T05:48:03;71.95;;;35.50;;
21152;SDS011;10734;44.792;20.482;2023-02-15T05:50:30;76.15;;;37.85;;
21152;SDS011;10734;44.792;20.482;2023-02-15T05:52:56;66.82;;;35.08;;
21152;SDS011;10734;44.792;20.482;2023-02-15T05:55:23;75.18;;;38.83;;
21152;SDS011;10734;44.792;20.482;2023-02-15T05:57:49;74.72;;;37.42;;
21152;SDS011;10734;44.792;20.482;2023-02-15T06:00:16;72.43;;;36.13;;
21152;SDS011;10734;44.792;20.482;2023-02-15T06:02:42;80.78;;;38.95;;
21152;SDS011;10734;44.792;20.482;2023-02-15T06:05:09;75.72;;;37.28;;
21152;SDS011;10734;44.792;20.482;2023-02-15T06:07:35;77.72;;;40.08;;
21152;SDS011;10734;44.792;20.482;2023-02-15T06:10:02;78.30;;;41.65;;
21152;SDS011;10734;44.792;20.482;2023-02-15T06:12:29;82.80;;;41.88;;
21152;SDS011;10734;44.792;20.482;2023-02-15T06:14:55;124.57;;;56.67;;
21152;SDS011;10734;44.792;20.482;2023-02-15T06:17:22;103.05;;;47.88;;
21152;SDS011;10734;44.792;20.482;2023-02-15T06:19:48;91.85;;;46.17;;
21152;SDS011;10734;44.792;20.482;2023-02-15T06:22:15;88.32;;;45.42;;
21152;SDS011;10734;44.792;20.482;2023-02-15T06:24:41;88.88;;;44.72;;
21152;SDS011;10734;44.792;20.482;2023-02-15T06:27:11;86.47;;;42.85;;
21152;SDS011;10734;44.792;20.482;2023-02-15T06:29:38;85.15;;;44.42;;
21152;SDS011;10734;44.792;20.482;2023-02-15T06:32:04;85.95;;;45.13;;
21152;SDS011;10734;44.792;20.482;2023-02-15T06:34:31;90.97;;;44.70;;
21152;SDS011;10734;44.792;20.482;2023-02-15T06:36:58;88.50;;;44.38;;
21152;SDS011;10734;44.792;20.482;2023-02-15T06:39:24;90.95;;;43.20;;
21152;SDS011;10734;44.792;20.482;2023-02-15T06:41:51;83.82;;;41.72;;
21152;SDS011;10734;44.792;20.482;2023-02-15T06:44:17;72.18;;;38.83;;
21152;SDS011;10734;44.792;20.482;2023-02-15T06:46:44;68.47;;;38.17;;
21152;SDS011;10734;44.792;20.482;2023-02-15T06:49:10;71.03;;;37.30;;
21152;SDS011;10734;44.792;20.482;2023-02-15T06:51:37;74.95;;;38.60;;
21152;SDS011;10734;44.792;20.482;2023-02-15T06:54:03;74.63;;;40.40;;
21152;SDS011;10734;44.792;20.482;2023-02-15T06:56:30;72.68;;;38.47;;
21152;SDS011;10734;44.792;20.482;2023-02-15T06:58:56;68.75;;;37.78;;
21152;SDS011;10734;44.792;20.482;2023-02-15T07:01:23;93.07;;;42.65;;
21152;SDS011;10734;44.792;20.482;2023-02-15T07:03:49;125.55;;;55.90;;
21152;SDS011;10734;44.792;20.482;2023-02-15T07:06:16;110.03;;;52.35;;
21152;SDS011;10734;44.792;20.482;2023-02-15T07:08:42;91.65;;;45.70;;
21152;SDS011;10734;44.792;20.482;2023-02-15T07:11:08;80.78;;;43.15;;
21152;SDS011;10734;44.792;20.482;2023-02-15T07:13:53;76.38;;;40.20;;
21152;SDS011;10734;44.792;20.482;2023-02-15T07:16:20;71.90;;;37.65;;
21152;SDS011;10734;44.792;20.482;2023-02-15T07:18:46;70.32;;;38.17;;
21152;SDS011;10734;44.792;20.482;2023-02-15T07:21:13;67.75;;;37.72;;
21152;SDS011;10734;44.792;20.482;2023-02-15T07:23:40;71.30;;;34.80;;
21152;SDS011;10734;44.792;20.482;2023-02-15T07:26:06;58.72;;;34.83;;
21152;SDS011;10734;44.792;20.482;2023-02-15T07:28:33;66.22;;;36.22;;
21152;SDS011;10734;44.792;20.482;2023-02-15T07:31:03;63.05;;;36.08;;
21152;SDS011;10734;44.792;20.482;2023-02-15T07:33:33;66.90;;;35.95;;
21152;SDS011;10734;44.792;20.482;2023-02-15T07:36:01;62.17;;;34.53;;
21152;SDS011;10734;44.792;20.482;2023-02-15T07:38:38;66.78;;;36.33;;
21152;SDS011;10734;44.792;20.482;2023-02-15T07:41:08;70.35;;;34.58;;
21152;SDS011;10734;44.792;20.482;2023-02-15T07:43:36;59.38;;;32.75;;
21152;SDS011;10734;44.792;20.482;2023-02-15T07:46:03;63.78;;;36.38;;
21152;SDS011;10734;44.792;20.482;2023-02-15T07:48:30;63.95;;;36.28;;
21152;SDS011;10734;44.792;20.482;2023-02-15T07:51:00;58.00;;;33.10;;
21152;SDS011;10734;44.792;20.482;2023-02-15T07:53:27;55.45;;;31.67;;
21152;SDS011;10734;44.792;20.482;2023-02-15T07:55:53;50.83;;;29.17;;
21152;SDS011;10734;44.792;20.482;2023-02-15T07:58:21;57.05;;;31.85;;
21152;SDS011;10734;44.792;20.482;2023-02-15T08:01:07;51.53;;;29.60;;
21152;SDS011;10734;44.792;20.482;2023-02-15T08:03:34;54.28;;;31.10;;
21152;SDS011;10734;44.792;20.482;2023-02-15T08:06:01;50.70;;;29.70;;
21152;SDS011;10734;44.792;20.482;2023-02-15T08:08:28;52.40;;;29.83;;
21152;SDS011;10734;44.792;20.482;2023-02-15T08:11:01;54.13;;;29.48;;
21152;SDS011;10734;44.792;20.482;2023-02-15T08:13:47;50.10;;;28.52;;
21152;SDS011;10734;44.792;20.482;2023-02-15T08:18:49;47.97;;;29.35;;
21152;SDS011;10734;44.792;20.482;2023-02-15T08:21:16;52.80;;;29.50;;
21152;SDS011;10734;44.792;20.482;2023-02-15T08:23:43;42.85;;;27.88;;
21152;SDS011;10734;44.792;20.482;2023-02-15T08:26:10;47.97;;;28.77;;
21152;SDS011;10734;44.792;20.482;2023-02-15T08:28:36;43.90;;;28.25;;
21152;SDS011;10734;44.792;20.482;2023-02-15T08:31:08;47.53;;;28.63;;
21152;SDS011;10734;44.792;20.482;2023-02-15T08:33:36;45.20;;;27.75;;
21152;SDS011;10734;44.792;20.482;2023-02-15T08:36:06;49.75;;;27.30;;
21152;SDS011;10734;44.792;20.482;2023-02-15T08:38:34;43.60;;;28.33;;
21152;SDS011;10734;44.792;20.482;2023-02-15T08:43:45;55.35;;;29.55;;
21152;SDS011;10734;44.792;20.482;2023-02-15T08:46:15;47.17;;;27.60;;
21152;SDS011;10734;44.792;20.482;2023-02-15T08:48:43;41.85;;;27.00;;
21152;SDS011;10734;44.792;20.482;2023-02-15T08:51:14;54.05;;;30.67;;
21152;SDS011;10734;44.792;20.482;2023-02-15T08:53:43;47.22;;;27.35;;
21152;SDS011;10734;44.792;20.482;2023-02-15T08:56:12;38.28;;;23.38;;
21152;SDS011;10734;44.792;20.482;2023-02-15T08:58:39;63.75;;;30.63;;
21152;SDS011;10734;44.792;20.482;2023-02-15T09:01:10;35.38;;;23.55;;
21152;SDS011;10734;44.792;20.482;2023-02-15T09:03:38;156.85;;;51.88;;
21152;SDS011;10734;44.792;20.482;2023-02-15T09:06:05;99.18;;;38.85;;
21152;SDS011;10734;44.792;20.482;2023-02-15T09:08:32;34.25;;;23.23;;
21152;SDS011;10734;44.792;20.482;2023-02-15T09:13:58;48.22;;;25.92;;
21152;SDS011;10734;44.792;20.482;2023-02-15T09:16:26;40.85;;;24.40;;
21152;SDS011;10734;44.792;20.482;2023-02-15T09:18:56;37.88;;;22.48;;
21152;SDS011;10734;44.792;20.482;2023-02-15T09:21:28;35.75;;;23.65;;
21152;SDS011;10734;44.792;20.482;2023-02-15T09:23:56;37.75;;;23.48;;
21152;SDS011;10734;44.792;20.482;2023-02-15T09:26:28;45.65;;;25.33;;
21152;SDS011;10734;44.792;20.482;2023-02-15T09:28:57;44.22;;;24.80;;
21152;SDS011;10734;44.792;20.482;2023-02-15T09:31:27;39.70;;;25.83;;
21152;SDS011;10734;44.792;20.482;2023-02-15T09:33:55;37.20;;;23.67;;
21152;SDS011;10734;44.792;20.482;2023-02-15T09:36:26;39.45;;;25.08;;
21152;SDS011;10734;44.792;20.482;2023-02-15T09:55:37;45.47;;;25.20;;
21152;SDS011;10734;44.792;20.482;2023-02-15T10:03:43;31.30;;;21.42;;
21152;SDS011;10734;44.792;20.482;2023-02-15T10:28:06;30.27;;;20.02;;
21152;SDS011;10734;44.792;20.482;2023-02-15T10:30:42;28.20;;;18.80;;
21152;SDS011;10734;44.792;20.482;2023-02-15T10:33:38;30.85;;;19.85;;
21152;SDS011;10734;44.792;20.482;2023-02-15T11:06:07;26.85;;;17.88;;
21152;SDS011;10734;44.792;20.482;2023-02-15T11:08:40;30.55;;;19.92;;
21152;SDS011;10734;44.792;20.482;2023-02-15T11:11:22;31.00;;;18.65;;
21152;SDS011;10734;44.792;20.482;2023-02-15T11:13:54;26.05;;;18.50;;
21152;SDS011;10734;44.792;20.482;2023-02-15T11:16:27;28.65;;;19.45;;
21152;SDS011;10734;44.792;20.482;2023-02-15T11:19:12;29.08;;;18.42;;
21152;SDS011;10734;44.792;20.482;2023-02-15T11:21:47;25.27;;;16.13;;
21152;SDS011;10734;44.792;20.482;2023-02-15T11:24:24;23.85;;;18.10;;
21152;SDS011;10734;44.792;20.482;2023-02-15T11:26:55;25.42;;;16.50;;
21152;SDS011;10734;44.792;20.482;2023-02-15T11:32:03;23.65;;;17.77;;
21152;SDS011;10734;44.792;20.482;2023-02-15T11:34:48;26.52;;;18.70;;
21152;SDS011;10734;44.792;20.482;2023-02-15T11:37:50;26.33;;;19.23;;
21152;SDS011;10734;44.792;20.482;2023-02-15T11:42:55;24.67;;;17.63;;
21152;SDS011;10734;44.792;20.482;2023-02-15T11:47:55;22.27;;;15.90;;
21152;SDS011;10734;44.792;20.482;2023-02-15T11:50:24;21.50;;;15.45;;
21152;SDS011;10734;44.792;20.482;2023-02-15T11:52:56;21.50;;;14.73;;
21152;SDS011;10734;44.792;20.482;2023-02-15T11:55:26;25.73;;;17.20;;
21152;SDS011;10734;44.792;20.482;2023-02-15T12:00:34;26.40;;;17.25;;
21152;SDS011;10734;44.792;20.482;2023-02-15T12:03:21;21.38;;;16.73;;
21152;SDS011;10734;44.792;20.482;2023-02-15T12:05:56;30.97;;;18.50;;
21152;SDS011;10734;44.792;20.482;2023-02-15T12:08:31;22.05;;;17.50;;
21152;SDS011;10734;44.792;20.482;2023-02-15T12:13:54;28.25;;;19.10;;
21152;SDS011;10734;44.792;20.482;2023-02-15T12:16:25;23.35;;;17.17;;
21152;SDS011;10734;44.792;20.482;2023-02-15T12:18:58;26.10;;;15.93;;
21152;SDS011;10734;44.792;20.482;2023-02-15T12:21:28;25.35;;;18.33;;
21152;SDS011;10734;44.792;20.482;2023-02-15T12:24:03;22.75;;;17.30;;
21152;SDS011;10734;44.792;20.482;2023-02-15T12:26:38;25.70;;;17.45;;
21152;SDS011;10734;44.792;20.482;2023-02-15T12:29:12;20.55;;;15.23;;
21152;SDS011;10734;44.792;20.482;2023-02-15T12:31:44;21.90;;;16.05;;
21152;SDS011;10734;44.792;20.482;2023-02-15T12:36:53;20.50;;;16.10;;
21152;SDS011;10734;44.792;20.482;2023-02-15T12:39:25;21.63;;;17.13;;
21152;SDS011;10734;44.792;20.482;2023-02-15T12:42:00;21.77;;;15.93;;
21152;SDS011;10734;44.792;20.482;2023-02-15T12:44:33;20.27;;;16.30;;
21152;SDS011;10734;44.792;20.482;2023-02-15T12:49:45;19.58;;;15.65;;
21152;SDS011;10734;44.792;20.482;2023-02-15T12:52:37;21.75;;;16.55;;
21152;SDS011;10734;44.792;20.482;2023-02-15T12:55:18;22.80;;;16.25;;
21152;SDS011;10734;44.792;20.482;2023-02-15T12:58:04;25.15;;;17.30;;
21152;SDS011;10734;44.792;20.482;2023-02-15T13:00:35;23.17;;;17.35;;
21152;SDS011;10734;44.792;20.482;2023-02-15T13:03:03;25.77;;;17.70;;
21152;SDS011;10734;44.792;20.482;2023-02-15T13:05:39;23.20;;;18.17;;
21152;SDS011;10734;44.792;20.482;2023-02-15T13:08:17;25.23;;;18.20;;
21152;SDS011;10734;44.792;20.482;2023-02-15T13:13:31;22.30;;;17.02;;
21152;SDS011;10734;44.792;20.482;2023-02-15T13:16:02;23.52;;;18.55;;
21152;SDS011;10734;44.792;20.482;2023-02-15T13:21:12;22.98;;;17.02;;
21152;SDS011;10734;44.792;20.482;2023-02-15T13:23:42;25.02;;;17.85;;
21152;SDS011;10734;44.792;20.482;2023-02-15T13:26:15;28.58;;;18.52;;
21152;SDS011;10734;44.792;20.482;2023-02-15T13:28:49;25.30;;;17.38;;
21152;SDS011;10734;44.792;20.482;2023-02-15T13:31:23;25.85;;;18.65;;
21152;SDS011;10734;44.792;20.482;2023-02-15T13:34:03;21.42;;;15.93;;
21152;SDS011;10734;44.792;20.482;2023-02-15T13:36:42;22.95;;;15.27;;
21152;SDS011;10734;44.792;20.482;2023-02-15T13:51:15;23.73;;;17.35;;
21152;SDS011;10734;44.792;20.482;2023-02-15T14:01:57;26.48;;;16.80;;
21152;SDS011;10734;44.792;20.482;2023-02-15T14:04:48;28.45;;;19.92;;
21152;SDS011;10734;44.792;20.482;2023-02-15T14:10:12;20.10;;;15.85;;
21152;SDS011;10734;44.792;20.482;2023-02-15T14:31:37;27.90;;;20.92;;
21152;SDS011;10734;44.792;20.482;2023-02-15T14:34:19;27.73;;;21.88;;
21152;SDS011;10734;44.792;20.482;2023-02-15T14:36:50;26.52;;;17.95;;
21152;SDS011;10734;44.792;20.482;2023-02-15T14:39:43;25.42;;;18.67;;
21152;SDS011;10734;44.792;20.482;2023-02-15T14:42:53;21.98;;;17.00;;
21152;SDS011;10734;44.792;20.482;2023-02-15T14:48:28;29.90;;;21.02;;
21152;SDS011;10734;44.792;20.482;2023-02-15T14:58:37;33.10;;;24.52;;
21152;SDS011;10734;44.792;20.482;2023-02-15T15:01:07;33.45;;;21.80;;
21152;SDS011;10734;44.792;20.482;2023-02-15T15:03:36;35.50;;;24.50;;
21152;SDS011;10734;44.792;20.482;2023-02-15T15:06:28;34.00;;;24.70;;
21152;SDS011;10734;44.792;20.482;2023-02-15T15:11:38;32.80;;;21.73;;
21152;SDS011;10734;44.792;20.482;2023-02-15T15:17:01;27.20;;;19.70;;
21152;SDS011;10734;44.792;20.482;2023-02-15T15:22:24;31.63;;;22.73;;
21152;SDS011;10734;44.792;20.482;2023-02-15T15:24:56;28.13;;;21.48;;
21152;SDS011;10734;44.792;20.482;2023-02-15T15:48:43;38.30;;;24.90;;
21152;SDS011;10734;44.792;20.482;2023-02-15T15:51:20;41.60;;;24.73;;
21152;SDS011;10734;44.792;20.482;2023-02-15T15:53:51;37.90;;;23.77;;
21152;SDS011;10734;44.792;20.482;2023-02-15T15:56:20;36.95;;;23.83;;
21152;SDS011;10734;44.792;20.482;2023-02-15T15:58:53;35.95;;;21.10;;
21152;SDS011;10734;44.792;20.482;2023-02-15T16:01:27;31.90;;;20.67;;
21152;SDS011;10734;44.792;20.482;2023-02-15T16:03:55;39.42;;;22.15;;
21152;SDS011;10734;44.792;20.482;2023-02-15T16:06:33;61.15;;;37.72;;
21152;SDS011;10734;44.792;20.482;2023-02-15T16:09:19;54.90;;;34.22;;
21152;SDS011;10734;44.792;20.482;2023-02-15T16:11:47;45.17;;;27.65;;
21152;SDS011;10734;44.792;20.482;2023-02-15T16:14:36;45.55;;;25.42;;
21152;SDS011;10734;44.792;20.482;2023-02-15T16:17:02;45.65;;;24.45;;
21152;SDS011;10734;44.792;20.482;2023-02-15T16:19:31;48.85;;;25.60;;
21152;SDS011;10734;44.792;20.482;2023-02-15T16:21:58;43.60;;;27.98;;
21152;SDS011;10734;44.792;20.482;2023-02-15T16:24:48;46.78;;;26.48;;
21152;SDS011;10734;44.792;20.482;2023-02-15T16:29:46;47.70;;;29.23;;
21152;SDS011;10734;44.792;20.482;2023-02-15T16:32:19;43.15;;;25.75;;
21152;SDS011;10734;44.792;20.482;2023-02-15T16:37:20;66.05;;;32.58;;
21152;SDS011;10734;44.792;20.482;2023-02-15T16:39:49;57.08;;;33.42;;
21152;SDS011;10734;44.792;20.482;2023-02-15T16:42:16;102.10;;;53.97;;
21152;SDS011;10734;44.792;20.482;2023-02-15T16:45:05;62.70;;;34.47;;
21152;SDS011;10734;44.792;20.482;2023-02-15T16:47:35;57.40;;;30.85;;
21152;SDS011;10734;44.792;20.482;2023-02-15T16:50:03;65.68;;;37.35;;
21152;SDS011;10734;44.792;20.482;2023-02-15T16:52:30;55.28;;;31.55;;
21152;SDS011;10734;44.792;20.482;2023-02-15T16:54:58;54.53;;;31.75;;
21152;SDS011;10734;44.792;20.482;2023-02-15T16:57:27;60.28;;;33.00;;
21152;SDS011;10734;44.792;20.482;2023-02-15T16:59:55;65.88;;;35.08;;
21152;SDS011;10734;44.792;20.482;2023-02-15T17:02:27;60.13;;;31.25;;
21152;SDS011;10734;44.792;20.482;2023-02-15T17:05:16;79.18;;;38.80;;
21152;SDS011;10734;44.792;20.482;2023-02-15T17:07:49;56.60;;;29.00;;
21152;SDS011;10734;44.792;20.482;2023-02-15T17:10:29;66.53;;;34.80;;
21152;SDS011;10734;44.792;20.482;2023-02-15T17:13:12;71.90;;;37.13;;
21152;SDS011;10734;44.792;20.482;2023-02-15T17:15:43;74.38;;;38.63;;
21152;SDS011;10734;44.792;20.482;2023-02-15T17:18:16;47.87;;;25.03;;
21152;SDS011;10734;44.792;20.482;2023-02-15T17:20:45;61.60;;;32.38;;
21152;SDS011;10734;44.792;20.482;2023-02-15T17:25:47;56.88;;;30.75;;
21152;SDS011;10734;44.792;20.482;2023-02-15T17:28:15;52.05;;;29.98;;
21152;SDS011;10734;44.792;20.482;2023-02-15T17:30:43;124.40;;;51.13;;
21152;SDS011;10734;44.792;20.482;2023-02-15T17:33:26;115.60;;;54.25;;
21152;SDS011;10734;44.792;20.482;2023-02-15T17:36:09;490.95;;;245.00;;
21152;SDS011;10734;44.792;20.482;2023-02-15T17:38:38;277.38;;;139.73;;
21152;SDS011;10734;44.792;20.482;2023-02-15T17:41:05;206.20;;;103.00;;
21152;SDS011;10734;44.792;20.482;2023-02-15T17:43:31;201.13;;;98.18;;
21152;SDS011;10734;44.792;20.482;2023-02-15T17:45:58;162.57;;;83.20;;
21152;SDS011;10734;44.792;20.482;2023-02-15T17:50:58;155.38;;;72.35;;
21152;SDS011;10734;44.792;20.482;2023-02-15T17:53:26;149.68;;;76.70;;
21152;SDS011;10734;44.792;20.482;2023-02-15T17:55:53;165.25;;;80.90;;
21152;SDS011;10734;44.792;20.482;2023-02-15T17:58:19;146.52;;;69.30;;
21152;SDS011;10734;44.792;20.482;2023-02-15T18:00:50;161.48;;;80.55;;
21152;SDS011;10734;44.792;20.482;2023-02-15T18:06:24;182.95;;;86.63;;
21152;SDS011;10734;44.792;20.482;2023-02-15T18:09:10;194.43;;;93.90;;
21152;SDS011;10734;44.792;20.482;2023-02-15T18:11:55;182.60;;;89.32;;
21152;SDS011;10734;44.792;20.482;2023-02-15T18:14:22;187.43;;;91.03;;
21152;SDS011;10734;44.792;20.482;2023-02-15T18:16:48;190.25;;;95.15;;
21152;SDS011;10734;44.792;20.482;2023-02-15T18:19:19;191.18;;;94.78;;
21152;SDS011;10734;44.792;20.482;2023-02-15T18:21:46;186.57;;;88.13;;
21152;SDS011;10734;44.792;20.482;2023-02-15T18:24:17;183.95;;;86.32;;